Airports

 

 

Airport Name Latest METAR Visual Conditions
Atlanta International (ATL) KATL 250152Z 12007KT 10SM FEW035 BKN250 24/18 A3020 RMK AO2 SLP217 T02440178 VFR
Asheville Regional (AVL) KAVL 250154Z 14003KT 10SM BKN060 20/16 A3030 RMK AO2 SLP240 T02000156 VFR
Birmingham International (BHM) KBHM 250153Z 11006KT 10SM SCT250 27/21 A3015 RMK AO2 SLP200 T02670211 VFR
Chattanooga (CHA) KCHA 250153Z 15005KT 10SM SCT250 26/18 A3017 RMK AO2 SLP208 T02610183 VFR
Charlotte International (CLT) KCLT 250152Z 10009KT 10SM FEW250 23/13 A3027 RMK AO2 SLP243 T02330133 VFR
Greensboro Piedmont-Triad (GSO) KGSO 250154Z 14003KT 10SM FEW055 20/12 A3027 RMK AO2 SLP244 T02000122 VFR
Greenville-Spartanburg International (GSP) KGSP 250153Z 13005KT 10SM CLR 22/15 A3026 RMK AO2 SLP237 T02170150 VFR
Middle Georgia Regional Airport (MCN) KMCN 250153Z AUTO 10006KT 10SM FEW046 23/19 A3019 RMK AO2 SLP220 T02280194 VFR
Tri-Cities Airport (TRI) KTRI 250153Z VRB03KT 10SM SCT150 23/13 A3022 RMK AO2 SLP209 T02330133 VFR
Knoxville Regional (TYS) KTYS 250153Z 21006KT 10SM FEW055 BKN250 24/17 A3017 RMK AO2 SLP204 T02390172 VFR